Latest Weather Observations for Mackay Airport

IDQ60801

Issued at 8:02 am EST Friday 24 November 2017 (issued every 30 minutes, with the page automatically refreshed every 10 minutes)

About weather observations | Map of weather stations | Latest weather observations for QLD | Other Formats
Station Details ID: 033045 Name: MACKAY AERO Lat: -21.17 Lon: 149.18 Height: 4.7 m
Data from the previous 72 hours. | See also: Recent months at Mackay Airport
Date/Time
EST
Temp
°C
App
Temp
°C
Dew
Point
°C
Rel
Hum
%
Delta-T
°C
Wind Press
QNH
hPa
Press
MSL
hPa
Rain since
9am
mm
Dir  Spd
km/h
Gust
km/h
Spd
kts
Gust
kts
24/08:00am 25.2 25.7 21.1 78 2.7 SSE 20 30 11 16 1013.5 1013.5 2.8
24/07:30am 24.0 24.5 20.9 83 2.0 SSE 19 24 10 13 1013.3 1013.3 2.8
24/07:00am 23.3 24.4 21.2 88 1.4 SSE 17 22 9 12 1013.3 1013.3 2.8
24/06:30am 22.5 23.9 21.0 91 1.0 S 15 19 8 10 1013.0 1013.0 2.8
24/06:00am 22.4 24.1 21.0 92 0.9 S 13 17 7 9 1012.8 1012.8 2.8
24/05:30am 22.2 23.8 20.8 92 0.9 SSW 13 17 7 9 1012.5 1012.5 2.8
24/05:04am 22.6 24.4 21.2 92 0.9 S 13 17 7 9 1012.1 1012.1 2.6
24/05:00am 22.7 24.5 21.2 91 1.0 S 13 17 7 9 1012.0 1012.0 2.6
24/04:52am 23.0 24.6 21.5 91 1.0 SSE 15 22 8 12 1011.8 1011.8 2.6
24/04:50am 23.1 24.7 21.5 91 1.1 SSE 15 22 8 12 1011.8 1011.8 2.6
24/04:32am 22.9 24.0 21.2 90 1.1 SE 17 20 9 11 1011.7 1011.7 2.4
24/04:30am 22.8 23.8 21.1 90 1.1 SE 17 20 9 11 1011.7 1011.7 2.4
24/04:00am 22.5 24.6 21.0 91 1.0 SSE 11 13 6 7 1011.7 1011.7 2.0
24/03:59am 22.5 24.6 21.0 91 1.0 SSE 11 13 6 7 1011.6 1011.6 2.0
24/03:48am 22.3 24.5 21.1 93 0.8 SSW 11 19 6 10 1011.5 1011.5 2.0
24/03:30am 21.7 23.9 20.3 92 0.9 SW 9 11 5 6 1011.4 1011.4 2.0
24/03:00am 21.9 23.7 20.4 91 1.0 SW 11 15 6 8 1011.3 1011.3 2.0
24/02:30am 23.6 24.6 20.3 82 2.1 SE 15 20 8 11 1011.5 1011.5 2.0
24/02:00am 23.9 24.3 20.6 82 2.2 SE 19 22 10 12 1011.6 1011.6 2.0
24/01:30am 23.9 24.4 20.8 83 2.0 SE 19 26 10 14 1011.8 1011.8 2.0
24/01:00am 24.3 24.5 20.6 80 2.4 ESE 20 26 11 14 1011.8 1011.8 2.0
24/12:30am 24.1 23.8 20.4 80 2.4 ESE 22 26 12 14 1011.9 1011.9 2.0
24/12:00am 24.2 24.4 20.5 80 2.4 ESE 20 28 11 15 1012.0 1012.0 2.0
 
Date/Time
EST
Temp
°C
App
Temp
°C
Dew
Point
°C
Rel
Hum
%
Delta-T
°C
Wind Press
QNH
hPa
Press
MSL
hPa
Rain since
9am
mm
Dir  Spd
km/h
Gust
km/h
Spd
kts
Gust
kts
23/11:30pm 24.3 23.7 20.6 80 2.4 ESE 24 30 13 16 1012.2 1012.2 2.0
23/11:00pm 24.2 24.4 20.5 80 2.4 ESE 20 28 11 15 1012.4 1012.4 2.0
23/10:30pm 24.2 24.0 20.5 80 2.4 ESE 22 28 12 15 1012.5 1012.5 2.0
23/10:00pm 24.3 24.5 20.6 80 2.4 ESE 20 26 11 14 1012.7 1012.7 2.0
23/09:30pm 24.1 24.2 20.4 80 2.4 ESE 20 28 11 15 1012.6 1012.6 2.0
23/09:00pm 24.3 23.6 20.2 78 2.7 ESE 24 30 13 16 1012.5 1012.5 2.0
23/08:30pm 24.3 23.4 19.8 76 2.9 ESE 24 30 13 16 1012.3 1012.3 2.0
23/08:00pm 24.5 23.8 20.2 77 2.8 ESE 24 32 13 17 1012.0 1012.0 2.0
23/07:30pm 24.6 23.7 19.9 75 3.0 ESE 24 32 13 17 1011.7 1011.7 2.0
23/07:00pm 24.7 24.3 20.2 76 2.9 ESE 22 28 12 15 1011.7 1011.7 2.0
23/06:30pm 24.6 24.6 20.9 80 2.4 SE 22 30 12 16 1011.3 1011.3 2.0
23/06:00pm 24.9 24.9 21.0 79 2.6 ESE 22 28 12 15 1011.1 1011.1 2.0
23/05:30pm 25.3 24.8 20.8 76 3.0 ESE 24 32 13 17 1010.9 1010.9 2.0
23/05:00pm 25.9 24.8 20.2 71 3.7 ESE 26 33 14 18 1010.4 1010.4 2.0
23/04:30pm 26.4 25.9 20.7 71 3.7 ESE 24 30 13 16 1010.4 1010.4 2.0
23/04:00pm 26.6 25.6 20.4 69 4.1 ESE 26 33 14 18 1010.3 1010.3 2.0
23/03:30pm 26.5 25.6 20.6 70 3.9 ESE 26 35 14 19 1010.2 1010.2 2.0
23/03:00pm 26.7 25.5 20.8 70 3.9 ESE 28 37 15 20 1010.5 1010.5 2.0
23/02:30pm 26.9 25.9 21.2 71 3.8 ESE 28 35 15 19 1010.7 1010.7 2.0
23/02:00pm 26.3 25.2 20.2 69 4.0 ESE 26 32 14 17 1010.9 1010.9 2.0
23/01:30pm 26.9 26.2 21.0 70 3.9 ESE 26 33 14 18 1011.1 1011.1 2.0
23/01:00pm 26.8 26.0 21.6 73 3.5 SE 28 37 15 20 1011.2 1011.2 2.0
23/12:30pm 25.9 24.5 20.5 72 3.5 SE 28 37 15 20 1011.5 1011.5 2.0
23/12:00pm 26.3 24.7 21.5 75 3.2 SE 32 37 17 20 1011.8 1011.8 2.0
23/11:30am 25.2 24.0 20.9 77 2.8 SE 28 32 15 17 1012.0 1012.0 2.0
23/11:00am 24.4 24.0 20.9 81 2.3 SSE 24 32 13 17 1012.3 1012.3 2.0
23/10:30am 22.9 21.3 20.1 84 1.8 SSE 28 35 15 19 1012.7 1012.7 2.0
23/10:00am 23.2 22.6 21.3 89 1.2 SE 26 33 14 18 1012.7 1012.7 2.0
23/09:51am 22.8 22.2 19.8 83 1.9 SE 22 30 12 16 1012.7 1012.7 2.0
23/09:30am 21.8 21.5 20.4 92 0.9 SE 22 30 12 16 1012.9 1012.9 1.8
23/09:21am 22.4 22.5 20.3 88 1.4 SSE 20 30 11 16 1012.8 1012.8 0.2
23/09:00am 23.5 25.1 20.8 85 1.8 SSE 13 20 7 11 1012.7 1012.7 21.2
23/08:56am 23.4 24.8 21.1 87 1.5 SSE 15 20 8 11 1012.6 1012.6 21.2
23/08:30am 21.6 24.3 20.2 92 0.9 SSW 6 9 3 5 1012.8 1012.8 20.4
23/08:00am 21.7 23.3 20.7 94 0.6 SSW 13 17 7 9 1012.4 1012.4 16.6
23/07:30am 21.4 23.1 20.2 93 0.8 SSE 11 15 6 8 1012.4 1012.4 13.8
23/07:11am 21.5 22.7 19.8 90 1.1 SSE 13 17 7 9 1012.3 1012.3 12.0
23/07:00am 21.5 22.7 19.8 90 1.1 SSW 13 17 7 9 1012.0 1012.0 11.4
23/06:30am 21.2 22.3 19.7 91 1.0 S 13 17 7 9 1011.8 1011.8 11.2
23/06:00am 21.1 21.8 19.6 91 1.0 S 15 19 8 10 1011.3 1011.3 11.2
23/05:30am 20.9 21.5 19.4 91 1.0 S 15 20 8 11 1010.8 1010.8 11.2
23/05:00am 20.6 21.0 19.1 91 0.9 SSW 15 20 8 11 1010.6 1010.6 11.2
23/04:30am 21.1 21.6 18.3 84 1.7 S 13 24 7 13 1010.3 1010.3 11.2
23/04:00am 22.5 22.0 18.7 79 2.4 SE 19 24 10 13 1010.1 1010.1 11.2
23/03:30am 22.8 21.5 19.0 79 2.4 SE 24 32 13 17 1009.7 1009.7 11.2
23/03:00am 23.0 21.2 18.7 77 2.7 ESE 26 32 14 17 1009.8 1009.8 11.2
23/02:30am 22.8 21.8 19.6 82 2.0 SE 24 33 13 18 1009.7 1009.7 11.2
23/02:00am 21.6 20.0 19.3 87 1.5 SE 26 37 14 20 1009.8 1009.8 11.2
23/01:30am 21.5 21.7 20.1 92 0.9 SE 19 24 10 13 1010.1 1010.1 11.2
23/01:08am 21.5 21.8 20.3 93 0.8 SSE 19 30 10 16 1010.3 1010.3 11.2
23/01:00am 21.1 22.7 19.9 93 0.8 S 11 15 6 8 1010.4 1010.4 11.2
23/12:36am 20.9 20.4 19.2 90 1.1 SSE 20 30 11 16 1011.1 1011.1 9.0
23/12:35am 21.2 21.2 19.8 92 0.9 SSE 19 28 10 15 1011.1 1011.1 8.8
23/12:30am 21.2 21.6 19.8 92 0.9 SSE 17 22 9 12 1011.0 1011.0 8.6
23/12:17am 21.3 23.0 20.1 93 0.8 SSE 11 15 6 8 1011.1 1011.1 8.6
23/12:16am 21.3 22.9 19.9 92 0.9 SSE 11 15 6 8 1011.1 1011.1 8.4
23/12:00am 21.1 21.5 19.9 93 0.8 SE 17 33 9 18 1011.3 1011.3 7.8
 
Date/Time
EST
Temp
°C
App
Temp
°C
Dew
Point
°C
Rel
Hum
%
Delta-T
°C
Wind Press
QNH
hPa
Press
MSL
hPa
Rain since
9am
mm
Dir  Spd
km/h
Gust
km/h
Spd
kts
Gust
kts
22/11:38pm 21.3 18.9 19.0 87 1.5 SE 30 43 16 23 1011.5 1011.5 0.4
22/11:30pm 23.5 23.1 19.4 78 2.6 E 20 37 11 20 1011.4 1011.4 0.0
22/11:00pm 23.2 22.1 18.7 76 2.8 ESE 22 32 12 17 1011.7 1011.7 0.0
22/10:30pm 23.4 22.6 18.5 74 3.1 E 20 28 11 15 1011.9 1011.9 0.0
22/10:00pm 23.2 21.6 18.3 74 3.1 E 24 32 13 17 1012.1 1012.1 0.0
22/09:30pm 23.7 22.0 18.1 71 3.5 E 24 32 13 17 1012.0 1012.0 0.0
22/09:00pm 23.7 21.4 18.4 72 3.3 E 28 33 15 18 1011.9 1011.9 0.0
22/08:30pm 23.4 21.8 18.3 73 3.2 ESE 24 32 13 17 1011.6 1011.6 0.0
22/08:00pm 23.5 21.8 18.2 72 3.3 ESE 24 30 13 16 1011.7 1011.7 0.0
22/07:30pm 23.4 21.2 17.8 71 3.5 ESE 26 32 14 17 1011.5 1011.5 0.0
22/07:00pm 23.6 22.3 19.1 76 2.9 ESE 24 30 13 16 1011.4 1011.4 0.0
22/06:30pm 23.6 21.6 18.3 72 3.3 ESE 26 32 14 17 1011.3 1011.3 0.0
22/06:00pm 23.9 22.5 18.8 73 3.2 SE 24 33 13 18 1010.9 1010.9 0.0
22/05:30pm 24.0 21.9 18.9 73 3.2 SE 28 35 15 19 1010.6 1010.6 0.0
22/05:00pm 24.2 22.3 18.6 71 3.5 ESE 26 33 14 18 1010.5 1010.5 0.0
22/04:30pm 25.0 23.1 19.4 71 3.6 SE 28 33 15 18 1010.2 1010.2 0.0
22/04:00pm 25.2 22.9 19.3 70 3.8 ESE 30 37 16 20 1010.2 1010.2 0.0
22/03:30pm 25.6 23.5 19.7 70 3.8 SE 30 35 16 19 1010.2 1010.2 0.0
22/03:00pm 24.6 21.9 19.2 72 3.5 SE 32 41 17 22 1010.3 1010.3 0.0
22/02:30pm 25.6 22.4 19.5 69 3.9 SE 35 43 19 23 1010.5 1010.5 0.0
22/02:00pm 24.4 21.0 18.1 68 4.0 SE 33 41 18 22 1010.8 1010.8 0.0
22/01:30pm 25.3 22.4 19.2 69 3.9 SE 33 41 18 22 1010.9 1010.9 0.0
22/01:00pm 24.9 20.8 19.1 70 3.7 SE 39 46 21 25 1011.3 1011.3 0.0
22/12:30pm 26.0 22.8 18.7 64 4.7 SE 33 41 18 22 1011.4 1011.4 0.0
22/12:00pm 26.0 23.6 20.3 71 3.7 SE 33 41 18 22 1011.8 1011.8 0.0
22/11:30am 24.8 22.4 19.2 71 3.6 SE 30 35 16 19 1012.2 1012.2 0.0
22/11:00am 25.0 23.3 19.8 73 3.4 SE 28 33 15 18 1012.4 1012.4 0.0
22/10:30am 23.5 21.4 19.8 80 2.4 SE 30 37 16 20 1012.6 1012.6 0.0
22/10:00am 24.6 22.9 19.9 75 3.0 SSE 28 35 15 19 1012.9 1012.9 0.0
22/09:30am 23.7 21.7 18.4 72 3.3 SSE 26 35 14 19 1012.9 1012.9 0.0
22/09:00am 23.8 21.2 17.8 69 3.7 SSE 28 35 15 19 1012.8 1012.8 10.8
22/08:30am 22.5 19.4 18.3 77 2.6 SSE 32 43 17 23 1012.6 1012.6 10.8
22/08:00am 22.4 20.7 19.0 81 2.2 SSE 26 33 14 18 1012.5 1012.5 10.8
22/07:30am 21.8 20.6 19.2 85 1.6 S 24 32 13 17 1012.6 1012.6 10.8
22/07:00am 21.3 20.8 19.2 88 1.3 S 20 30 11 16 1012.5 1012.5 10.8
22/06:30am 20.6 20.7 19.1 91 0.9 S 17 20 9 11 1012.0 1012.0 10.8
22/06:00am 20.1 19.6 18.6 91 0.9 SSW 19 24 10 13 1011.8 1011.8 10.8
22/05:30am 20.2 19.6 18.5 90 1.1 S 19 26 10 14 1011.3 1011.3 10.8
22/05:00am 20.2 21.1 18.3 89 1.2 SW 11 15 6 8 1011.1 1011.1 10.6
22/04:30am 20.4 20.4 18.9 91 0.9 SW 17 20 9 11 1011.0 1011.0 10.6
22/04:00am 20.4 21.1 18.9 91 0.9 S 13 19 7 10 1010.9 1010.9 10.6
22/03:30am 20.7 21.8 18.8 89 1.2 SW 11 13 6 7 1010.4 1010.4 10.6
22/03:00am 20.9 21.3 19.0 89 1.2 SSW 15 17 8 9 1010.6 1010.6 10.6
22/02:30am 20.9 22.2 19.2 90 1.1 SSW 11 17 6 9 1010.4 1010.4 10.6
22/02:00am 20.8 23.0 19.3 91 0.9 SW 6 9 3 5 1010.7 1010.7 10.6
22/01:30am 20.7 22.7 19.2 91 0.9 SW 7 11 4 6 1011.1 1011.1 10.6
22/01:00am 21.1 23.1 19.2 89 1.2 SSW 7 13 4 7 1011.0 1011.0 10.6
22/12:30am 21.3 22.8 18.9 86 1.5 SW 9 11 5 6 1011.6 1011.6 10.6
22/12:00am 22.9 23.5 19.5 81 2.2 ESE 15 22 8 12 1011.6 1011.6 10.6
 
Date/Time
EST
Temp
°C
App
Temp
°C
Dew
Point
°C
Rel
Hum
%
Delta-T
°C
Wind Press
QNH
hPa
Press
MSL
hPa
Rain since
9am
mm
Dir  Spd
km/h
Gust
km/h
Spd
kts
Gust
kts
21/11:30pm 22.6 22.3 19.2 81 2.2 E 19 32 10 17 1012.0 1012.0 10.6
21/11:02pm 21.1 21.5 19.0 88 1.3 S 15 19 8 10 1012.2 1012.2 10.6
21/11:00pm 21.1 21.5 19.0 88 1.3 S 15 19 8 10 1012.2 1012.2 10.4
21/10:30pm 21.0 20.8 19.3 90 1.1 SE 19 28 10 15 1013.1 1013.1 7.0
21/10:24pm 21.4 21.1 19.5 89 1.2 SE 20 28 11 15 1013.1 1013.1 1.8
21/10:00pm 22.3 23.2 20.0 87 1.5 NE 15 20 8 11 1013.1 1013.1 0.8
21/09:49pm 21.6 21.5 18.8 84 1.8 ENE 17 26 9 14 1013.1 1013.1 0.8
21/09:30pm 21.4 19.4 19.1 87 1.5 E 28 37 15 20 1013.3 1013.3 0.6
21/09:24pm 21.7 19.2 18.9 84 1.8 ESE 30 39 16 21 1013.4 1013.4 0.4
21/09:00pm 23.6 23.5 18.7 74 3.1 E 17 22 9 12 1013.1 1013.1 0.0
21/08:30pm 23.5 22.4 18.6 74 3.1 E 22 30 12 16 1013.2 1013.2 0.0
21/08:00pm 23.5 22.3 18.4 73 3.2 E 22 30 12 16 1012.8 1012.8 0.0
21/07:30pm 23.6 21.8 18.7 74 3.1 ESE 26 35 14 19 1012.6 1012.6 0.0
21/07:00pm 23.8 22.7 18.7 73 3.2 ESE 22 28 12 15 1012.7 1012.7 0.0
21/06:30pm 23.2 22.2 18.9 77 2.7 ESE 22 30 12 16 1012.7 1012.7 0.0
21/06:00pm 24.1 22.7 18.7 72 3.4 ESE 24 32 13 17 1012.6 1012.6 0.0
21/05:30pm 24.5 23.4 17.7 66 4.2 ESE 20 28 11 15 1012.3 1012.3 0.0
21/05:00pm 24.9 23.7 17.4 63 4.7 ESE 20 28 11 15 1012.0 1012.0 0.0
21/04:30pm 25.3 23.0 16.7 59 5.3 ESE 24 32 13 17 1011.9 1011.9 0.0
21/04:00pm 25.7 24.0 18.1 63 4.8 E 24 30 13 16 1011.9 1011.9 0.0
21/03:30pm 25.8 24.9 19.0 66 4.4 ESE 22 28 12 15 1012.1 1012.1 0.0
21/03:00pm 25.3 24.0 18.2 64 4.5 ESE 22 30 12 16 1012.3 1012.3 0.0
21/02:30pm 25.5 23.7 18.7 66 4.3 ESE 26 32 14 17 1012.7 1012.7 0.0
21/02:00pm 25.5 23.5 19.2 68 4.0 ESE 28 33 15 18 1013.0 1013.0 0.0
21/01:30pm 25.4 23.1 19.3 69 3.9 ESE 30 41 16 22 1013.2 1013.2 0.0
21/01:00pm 24.8 22.0 19.0 70 3.7 ESE 32 41 17 22 1013.5 1013.5 0.0
21/12:30pm 26.8 24.2 17.8 57 5.7 ESE 28 35 15 19 1013.7 1013.7 0.0
21/12:00pm 26.7 24.1 17.8 58 5.6 ESE 28 37 15 20 1013.9 1013.9 0.0
21/11:30am 27.5 24.8 19.3 61 5.3 ESE 32 41 17 22 1013.9 1013.9 0.0
21/11:00am 26.9 24.8 19.0 62 5.1 ESE 28 35 15 19 1014.4 1014.4 0.0
21/10:30am 26.9 24.0 19.3 63 4.9 ESE 33 41 18 22 1014.2 1014.2 0.0
21/10:00am 25.4 22.6 19.1 68 4.0 ESE 32 39 17 21 1014.6 1014.6 0.0
21/09:30am 24.6 24.0 18.8 70 3.7 ESE 20 24 11 13 1014.7 1014.7 0.0
21/09:00am 23.8 20.8 18.7 73 3.2 E 32 43 17 23 1014.8 1014.8 22.0
21/08:30am 25.4 23.4 19.1 68 4.0 ESE 28 35 15 19 1014.4 1014.4 22.0

Other Formats:

Comma delimited format used in spreadsheet applications
http://www.bom.gov.au/fwo/IDQ60801/IDQ60801.95367.axf

JavaScript Object Notation format (JSON) in row-major order
http://www.bom.gov.au/fwo/IDQ60801/IDQ60801.95367.json